Pollock, ID

4:52 PM PDT on October 31, 2014 (GMT -0700)
Baker City Municipal | Change Station
CLOSE
Current Station
Airport
Location: Baker,
Elevation: 3373 ft
Nearby Weather Stations

Elev 3373 ft 44.84 °N, 117.81 °W | Updated 59 minutes ago

Mostly Cloudy
Mostly Cloudy
65 °F
Feels Like 65 °F
N
4
Wind Variable Wind from West

Today
High -- | Low -- °F
--% Chance of Precip.
Yesterday
High -- | Low -- °F
Precip. -- in
7:23 AM 5:34 PM
First Quarter, 60% visible
Pressure 29.72 in
Visibility 10.0 miles
Clouds Overcast 10000 ft
Dew Point 32 °F
Humidity 29%
Rainfall 0.00 in
Snow Depth Not available.
UV 0 out of 12
Pollen 2.60 out of 12
Air Quality Not available.
Flu Activity Not available.
METAR KBKE 312253Z AUTO 28003KT 10SM OVC100 18/00 A2975 RMK AO2 SLP063 T01830000

More Conditions Fewer Conditions

Pressure 29.72 in
Visibility 10.0 miles
Clouds Overcast 10000 ft
Dew Point 32 °F
Humidity 29%
Rainfall 0.00 in
Snow Depth Not available.
UV 0 out of 12
Pollen 2.60 out of 12
Air Quality Not available.
Flu Activity Not available.
METAR KBKE 312253Z AUTO 28003KT 10SM OVC100 18/00 A2975 RMK AO2 SLP063 T01830000

More Conditions Fewer Conditions

10-Day Weather Forecast

Almanac

Astronomy

Oct. 31, 2014 Rise Set
Actual Time
Civil Twilight
Nautical Twilight
Astronomical Twilight
Moon
Length of Visible Light
Length of Day
Tomorrow will be .
, % of the Moon is Illuminated

Today's Extremes

State Highs State Lows

Community

WunderPhotos

Upload Photos

1,766,786 photos uploaded!

WunderBlogs® & News

Nearby

Air Quality

  Air Quality AQ Index Pollutant
Not available.

Snow Depth

Station Depth Elevation

Earthquake Activity

City Distance Mag. Time & Date
Minimum magnitude displayed is 2.5.

Coastal Water Temperatures

Place Temperature

Nearby Weather Stations